CheckWX is a tool to help pilots better visualize weather data.  It is not intended as a substitute for an official pre-flight weather briefing.

18:33:18 UTC

CZFN METAR
Tulita Airport
Tulita, Canada
Current

33 mins ago

CZFN 221800Z 29008KT 20SM FEW015 SCT084 M18/M21 A3031 RMK ST2AC2 SLP279
Observed
Feb-22 @ 18:00 UTC
Wind
  • 290° at 8 KTS
Visibility
20 SM
Flight Rules
VFR
Cloud Levels
  • Few at 1,500' AGL
  • Scattered at 8,400' AGL
Temperature
-18°C / -0°F
Dewpoint
-21°C / -6°F
Humidity
78%
Altimeter
30.31" Hg
Pressure
1027.9 hPa
Previous

2 hours ago

CZFN 221700Z 28009KT 20SM FEW015 SCT100 BKN170 M19/M22 A3028 RMK ST1AC3AS1 SLP270
Observed
Feb-22 @ 17:00 UTC
Wind
  • 280° at 9 KTS
Visibility
20 SM
Flight Rules
VFR
Cloud Levels
  • Few at 1,500' AGL
  • Scattered at 10,000' AGL
  • Broken at 17,000' AGL
Temperature
-19°C / -2°F
Dewpoint
-22°C / -8°F
Humidity
77%
Altimeter
30.28" Hg
Pressure
1027 hPa
Previous

3 hours ago

CZFN 221600Z 31006KT 20SM FEW016 BKN089 BKN100 M18/M22 A3026 RMK ST1AC4AC1 -16.5 / -21.4 / TR / SNW CVR / MUCH LOOSE / SLP261
Observed
Feb-22 @ 16:00 UTC
Wind
  • 310° at 6 KTS
Visibility
20 SM
Flight Rules
VFR
Cloud Levels
  • Few at 1,600' AGL
  • Broken at 8,900' AGL
  • Broken at 10,000' AGL
Temperature
-18°C / -0°F
Dewpoint
-22°C / -8°F
Humidity
71%
Altimeter
30.26" Hg
Pressure
1026.1 hPa